sensor_id;sensor_type;location;lat;lon;timestamp;temperature;humidity
20233;DHT22;37438;55.674;13.074;2023-02-26T00:00:22;-2.10;99.90
20233;DHT22;37438;55.674;13.074;2023-02-26T00:03:27;-2.10;99.90
20233;DHT22;37438;55.674;13.074;2023-02-26T00:06:34;-2.10;99.90
20233;DHT22;37438;55.674;13.074;2023-02-26T00:09:39;-2.10;99.90
20233;DHT22;37438;55.674;13.074;2023-02-26T00:12:43;-2.20;99.90
20233;DHT22;37438;55.674;13.074;2023-02-26T00:15:50;-2.20;99.90
20233;DHT22;37438;55.674;13.074;2023-02-26T00:19:02;-2.20;99.90
20233;DHT22;37438;55.674;13.074;2023-02-26T00:22:08;-2.30;99.90
20233;DHT22;37438;55.674;13.074;2023-02-26T00:25:12;-2.30;99.90
20233;DHT22;37438;55.674;13.074;2023-02-26T00:28:17;-2.30;99.90
20233;DHT22;37438;55.674;13.074;2023-02-26T00:31:22;-2.30;99.90
20233;DHT22;37438;55.674;13.074;2023-02-26T00:34:30;-2.30;99.90
20233;DHT22;37438;55.674;13.074;2023-02-26T00:40:46;-2.40;99.90
20233;DHT22;37438;55.674;13.074;2023-02-26T00:43:51;-2.40;99.90
20233;DHT22;37438;55.674;13.074;2023-02-26T00:50:26;-2.50;99.90
20233;DHT22;37438;55.674;13.074;2023-02-26T00:54:26;-2.50;99.90
20233;DHT22;37438;55.674;13.074;2023-02-26T00:57:05;-2.50;99.90
20233;DHT22;37438;55.674;13.074;2023-02-26T01:00:10;-2.50;99.90
20233;DHT22;37438;55.674;13.074;2023-02-26T01:03:15;-2.50;99.90
20233;DHT22;37438;55.674;13.074;2023-02-26T01:06:20;-2.50;99.90
20233;DHT22;37438;55.674;13.074;2023-02-26T01:09:31;-2.50;99.90
20233;DHT22;37438;55.674;13.074;2023-02-26T01:12:36;-2.50;99.90
20233;DHT22;37438;55.674;13.074;2023-02-26T01:15:46;-2.50;99.90
20233;DHT22;37438;55.674;13.074;2023-02-26T01:19:32;-2.50;99.90
20233;DHT22;37438;55.674;13.074;2023-02-26T01:25:56;-2.50;99.90
20233;DHT22;37438;55.674;13.074;2023-02-26T01:29:01;-2.60;99.90
20233;DHT22;37438;55.674;13.074;2023-02-26T01:32:14;-2.60;99.90
20233;DHT22;37438;55.674;13.074;2023-02-26T01:35:31;-2.70;99.90
20233;DHT22;37438;55.674;13.074;2023-02-26T01:38:51;-2.70;99.90
20233;DHT22;37438;55.674;13.074;2023-02-26T01:42:17;-2.70;99.90
20233;DHT22;37438;55.674;13.074;2023-02-26T01:45:38;-2.70;99.90
20233;DHT22;37438;55.674;13.074;2023-02-26T01:48:55;-2.70;99.90
20233;DHT22;37438;55.674;13.074;2023-02-26T01:52:03;-2.70;99.90
20233;DHT22;37438;55.674;13.074;2023-02-26T01:55:09;-2.70;99.90
20233;DHT22;37438;55.674;13.074;2023-02-26T01:58:14;-2.70;99.90
20233;DHT22;37438;55.674;13.074;2023-02-26T02:01:20;-2.70;99.90
20233;DHT22;37438;55.674;13.074;2023-02-26T02:04:25;-2.70;99.90
20233;DHT22;37438;55.674;13.074;2023-02-26T02:07:30;-2.70;99.90
20233;DHT22;37438;55.674;13.074;2023-02-26T02:10:34;-2.80;99.90
20233;DHT22;37438;55.674;13.074;2023-02-26T02:17:29;-2.80;99.90
20233;DHT22;37438;55.674;13.074;2023-02-26T02:27:39;-2.90;99.90
20233;DHT22;37438;55.674;13.074;2023-02-26T02:34:20;-2.90;99.90
20233;DHT22;37438;55.674;13.074;2023-02-26T02:37:31;-2.90;99.90
20233;DHT22;37438;55.674;13.074;2023-02-26T02:40:41;-2.90;99.90
20233;DHT22;37438;55.674;13.074;2023-02-26T02:43:48;-2.90;99.90
20233;DHT22;37438;55.674;13.074;2023-02-26T02:46:55;-2.90;99.90
20233;DHT22;37438;55.674;13.074;2023-02-26T02:50:15;-3.00;99.90
20233;DHT22;37438;55.674;13.074;2023-02-26T02:53:28;-2.90;99.90
20233;DHT22;37438;55.674;13.074;2023-02-26T02:56:34;-3.00;99.90
20233;DHT22;37438;55.674;13.074;2023-02-26T02:59:45;-3.00;99.90
20233;DHT22;37438;55.674;13.074;2023-02-26T03:06:16;-3.00;99.90
20233;DHT22;37438;55.674;13.074;2023-02-26T03:09:20;-3.10;99.90
20233;DHT22;37438;55.674;13.074;2023-02-26T03:12:26;-3.10;99.90
20233;DHT22;37438;55.674;13.074;2023-02-26T03:16:16;-3.10;99.90
20233;DHT22;37438;55.674;13.074;2023-02-26T03:26:15;-3.20;99.90
20233;DHT22;37438;55.674;13.074;2023-02-26T03:29:46;-3.20;99.90
20233;DHT22;37438;55.674;13.074;2023-02-26T03:33:13;-3.30;99.90
20233;DHT22;37438;55.674;13.074;2023-02-26T03:36:30;-3.30;99.90
20233;DHT22;37438;55.674;13.074;2023-02-26T03:40:00;-3.30;99.90
20233;DHT22;37438;55.674;13.074;2023-02-26T03:43:29;-3.30;99.90
20233;DHT22;37438;55.674;13.074;2023-02-26T03:46:39;-3.40;99.90
20233;DHT22;37438;55.674;13.074;2023-02-26T03:49:55;-3.40;99.90
20233;DHT22;37438;55.674;13.074;2023-02-26T03:53:05;-3.50;99.90
20233;DHT22;37438;55.674;13.074;2023-02-26T03:56:25;-3.50;99.90
20233;DHT22;37438;55.674;13.074;2023-02-26T03:59:50;-3.60;99.90
20233;DHT22;37438;55.674;13.074;2023-02-26T04:03:18;-3.70;99.90
20233;DHT22;37438;55.674;13.074;2023-02-26T04:06:26;-3.70;99.90
20233;DHT22;37438;55.674;13.074;2023-02-26T04:09:32;-3.70;99.90
20233;DHT22;37438;55.674;13.074;2023-02-26T04:12:37;-3.70;99.90
20233;DHT22;37438;55.674;13.074;2023-02-26T04:15:43;-3.60;99.90
20233;DHT22;37438;55.674;13.074;2023-02-26T04:18:48;-3.60;99.90
20233;DHT22;37438;55.674;13.074;2023-02-26T04:21:52;-3.50;99.90
20233;DHT22;37438;55.674;13.074;2023-02-26T04:24:57;-3.50;99.90
20233;DHT22;37438;55.674;13.074;2023-02-26T04:28:01;-3.50;99.90
20233;DHT22;37438;55.674;13.074;2023-02-26T04:31:07;-3.40;99.90
20233;DHT22;37438;55.674;13.074;2023-02-26T04:34:12;-3.40;99.90
20233;DHT22;37438;55.674;13.074;2023-02-26T04:37:17;-3.30;99.90
20233;DHT22;37438;55.674;13.074;2023-02-26T04:40:22;-3.40;99.90
20233;DHT22;37438;55.674;13.074;2023-02-26T04:43:29;-3.40;99.90
20233;DHT22;37438;55.674;13.074;2023-02-26T04:46:49;-3.30;99.90
20233;DHT22;37438;55.674;13.074;2023-02-26T04:49:53;-3.30;99.90
20233;DHT22;37438;55.674;13.074;2023-02-26T04:52:58;-3.40;99.90
20233;DHT22;37438;55.674;13.074;2023-02-26T04:56:03;-3.40;99.90
20233;DHT22;37438;55.674;13.074;2023-02-26T04:59:07;-3.40;99.90
20233;DHT22;37438;55.674;13.074;2023-02-26T05:02:12;-3.40;99.90
20233;DHT22;37438;55.674;13.074;2023-02-26T05:05:20;-3.30;99.90
20233;DHT22;37438;55.674;13.074;2023-02-26T05:08:25;-3.30;99.90
20233;DHT22;37438;55.674;13.074;2023-02-26T05:11:30;-3.30;99.90
20233;DHT22;37438;55.674;13.074;2023-02-26T05:14:35;-3.30;99.90
20233;DHT22;37438;55.674;13.074;2023-02-26T05:17:40;-3.30;99.90
20233;DHT22;37438;55.674;13.074;2023-02-26T05:20:44;-3.40;99.90
20233;DHT22;37438;55.674;13.074;2023-02-26T05:23:49;-3.30;99.90
20233;DHT22;37438;55.674;13.074;2023-02-26T05:26:54;-3.30;99.90
20233;DHT22;37438;55.674;13.074;2023-02-26T05:29:58;-3.40;99.90
20233;DHT22;37438;55.674;13.074;2023-02-26T05:33:03;-3.40;99.90
20233;DHT22;37438;55.674;13.074;2023-02-26T05:36:08;-3.40;99.90
20233;DHT22;37438;55.674;13.074;2023-02-26T05:39:12;-3.50;99.90
20233;DHT22;37438;55.674;13.074;2023-02-26T05:42:17;-3.50;99.90
20233;DHT22;37438;55.674;13.074;2023-02-26T05:45:21;-3.50;99.90
20233;DHT22;37438;55.674;13.074;2023-02-26T05:48:26;-3.50;99.90
20233;DHT22;37438;55.674;13.074;2023-02-26T05:51:30;-3.50;99.90
20233;DHT22;37438;55.674;13.074;2023-02-26T05:54:35;-3.40;99.90
20233;DHT22;37438;55.674;13.074;2023-02-26T05:57:39;-3.50;99.90
20233;DHT22;37438;55.674;13.074;2023-02-26T06:00:44;-3.40;99.90
20233;DHT22;37438;55.674;13.074;2023-02-26T06:03:48;-3.40;99.90
20233;DHT22;37438;55.674;13.074;2023-02-26T06:06:52;-3.40;99.90
20233;DHT22;37438;55.674;13.074;2023-02-26T06:09:57;-3.40;99.90
20233;DHT22;37438;55.674;13.074;2023-02-26T06:13:01;-3.20;99.90
20233;DHT22;37438;55.674;13.074;2023-02-26T06:16:06;-3.30;99.90
20233;DHT22;37438;55.674;13.074;2023-02-26T06:19:10;-3.10;99.90
20233;DHT22;37438;55.674;13.074;2023-02-26T06:22:15;-3.20;99.90
20233;DHT22;37438;55.674;13.074;2023-02-26T06:25:19;-3.10;99.90
20233;DHT22;37438;55.674;13.074;2023-02-26T06:28:24;-2.80;99.90
20233;DHT22;37438;55.674;13.074;2023-02-26T06:31:29;-2.50;99.90
20233;DHT22;37438;55.674;13.074;2023-02-26T06:34:33;-2.30;99.90
20233;DHT22;37438;55.674;13.074;2023-02-26T06:37:38;-2.10;99.90
20233;DHT22;37438;55.674;13.074;2023-02-26T06:40:43;-1.80;99.90
20233;DHT22;37438;55.674;13.074;2023-02-26T06:43:47;-1.60;99.90
20233;DHT22;37438;55.674;13.074;2023-02-26T06:46:52;-1.30;99.90
20233;DHT22;37438;55.674;13.074;2023-02-26T06:49:56;-1.20;99.90
20233;DHT22;37438;55.674;13.074;2023-02-26T06:53:01;-1.20;99.90
20233;DHT22;37438;55.674;13.074;2023-02-26T06:56:05;-1.20;99.90
20233;DHT22;37438;55.674;13.074;2023-02-26T06:59:10;-1.20;99.90
20233;DHT22;37438;55.674;13.074;2023-02-26T07:02:16;-1.20;99.90
20233;DHT22;37438;55.674;13.074;2023-02-26T07:05:21;-1.10;99.90
20233;DHT22;37438;55.674;13.074;2023-02-26T07:08:26;-1.10;99.90
20233;DHT22;37438;55.674;13.074;2023-02-26T07:11:30;-0.90;99.90
20233;DHT22;37438;55.674;13.074;2023-02-26T07:14:35;-0.90;99.90
20233;DHT22;37438;55.674;13.074;2023-02-26T07:17:39;-0.80;99.90
20233;DHT22;37438;55.674;13.074;2023-02-26T07:20:43;-0.70;99.90
20233;DHT22;37438;55.674;13.074;2023-02-26T07:23:48;-0.60;99.90
20233;DHT22;37438;55.674;13.074;2023-02-26T07:26:53;-0.60;99.90
20233;DHT22;37438;55.674;13.074;2023-02-26T07:29:57;-0.30;99.90
20233;DHT22;37438;55.674;13.074;2023-02-26T07:33:01;-0.20;99.90
20233;DHT22;37438;55.674;13.074;2023-02-26T07:36:06;0.10;99.90
20233;DHT22;37438;55.674;13.074;2023-02-26T07:39:10;0.30;99.90
20233;DHT22;37438;55.674;13.074;2023-02-26T07:42:15;0.40;99.90
20233;DHT22;37438;55.674;13.074;2023-02-26T07:45:19;0.70;99.90
20233;DHT22;37438;55.674;13.074;2023-02-26T07:48:25;1.20;99.90
20233;DHT22;37438;55.674;13.074;2023-02-26T07:51:30;1.60;99.90
20233;DHT22;37438;55.674;13.074;2023-02-26T07:54:36;2.00;99.90
20233;DHT22;37438;55.674;13.074;2023-02-26T07:57:41;2.50;99.90
20233;DHT22;37438;55.674;13.074;2023-02-26T08:00:45;2.70;99.90
20233;DHT22;37438;55.674;13.074;2023-02-26T08:03:49;3.00;99.90
20233;DHT22;37438;55.674;13.074;2023-02-26T08:06:54;3.40;99.90
20233;DHT22;37438;55.674;13.074;2023-02-26T08:10:00;3.60;99.90
20233;DHT22;37438;55.674;13.074;2023-02-26T08:13:05;3.80;99.90
20233;DHT22;37438;55.674;13.074;2023-02-26T08:16:09;4.20;99.90
20233;DHT22;37438;55.674;13.074;2023-02-26T08:19:14;4.40;99.90
20233;DHT22;37438;55.674;13.074;2023-02-26T08:22:19;4.80;99.90
20233;DHT22;37438;55.674;13.074;2023-02-26T08:25:24;5.30;99.90
20233;DHT22;37438;55.674;13.074;2023-02-26T08:28:28;5.70;99.90
20233;DHT22;37438;55.674;13.074;2023-02-26T08:31:34;5.80;99.90
20233;DHT22;37438;55.674;13.074;2023-02-26T08:34:39;6.10;99.90
20233;DHT22;37438;55.674;13.074;2023-02-26T08:37:43;6.30;99.90
20233;DHT22;37438;55.674;13.074;2023-02-26T08:40:50;6.50;88.10
20233;DHT22;37438;55.674;13.074;2023-02-26T08:43:56;6.70;41.40
20233;DHT22;37438;55.674;13.074;2023-02-26T08:47:00;6.90;1.60
20233;DHT22;37438;55.674;13.074;2023-02-26T08:50:05;7.00;1.00
20233;DHT22;37438;55.674;13.074;2023-02-26T08:53:10;7.40;1.00
20233;DHT22;37438;55.674;13.074;2023-02-26T08:56:14;7.70;99.90
20233;DHT22;37438;55.674;13.074;2023-02-26T08:59:19;8.10;99.90
20233;DHT22;37438;55.674;13.074;2023-02-26T09:02:23;8.20;99.90
20233;DHT22;37438;55.674;13.074;2023-02-26T09:05:28;8.40;99.90
20233;DHT22;37438;55.674;13.074;2023-02-26T09:08:32;8.50;99.90
20233;DHT22;37438;55.674;13.074;2023-02-26T09:11:37;8.70;99.90
20233;DHT22;37438;55.674;13.074;2023-02-26T09:14:41;9.30;99.90
20233;DHT22;37438;55.674;13.074;2023-02-26T09:17:46;9.50;99.90
20233;DHT22;37438;55.674;13.074;2023-02-26T09:20:51;9.60;96.00
20233;DHT22;37438;55.674;13.074;2023-02-26T09:23:55;9.70;57.00
20233;DHT22;37438;55.674;13.074;2023-02-26T09:27:00;9.60;33.40
20233;DHT22;37438;55.674;13.074;2023-02-26T09:30:07;9.70;18.40
20233;DHT22;37438;55.674;13.074;2023-02-26T09:33:11;9.90;1.80
20233;DHT22;37438;55.674;13.074;2023-02-26T09:36:15;10.40;1.00
20233;DHT22;37438;55.674;13.074;2023-02-26T09:39:20;11.30;1.00
20233;DHT22;37438;55.674;13.074;2023-02-26T09:42:32;11.60;1.00
20233;DHT22;37438;55.674;13.074;2023-02-26T09:45:42;11.50;99.90
20233;DHT22;37438;55.674;13.074;2023-02-26T09:48:50;11.20;1.00
20233;DHT22;37438;55.674;13.074;2023-02-26T09:52:15;11.60;1.00
20233;DHT22;37438;55.674;13.074;2023-02-26T09:55:35;12.10;99.90
20233;DHT22;37438;55.674;13.074;2023-02-26T09:58:43;12.20;99.90
20233;DHT22;37438;55.674;13.074;2023-02-26T10:01:57;12.40;99.90
20233;DHT22;37438;55.674;13.074;2023-02-26T10:05:22;12.60;99.90
20233;DHT22;37438;55.674;13.074;2023-02-26T10:08:58;12.60;99.90
20233;DHT22;37438;55.674;13.074;2023-02-26T10:12:16;12.60;99.90
20233;DHT22;37438;55.674;13.074;2023-02-26T10:15:29;13.20;99.90
20233;DHT22;37438;55.674;13.074;2023-02-26T10:18:40;13.70;99.90
20233;DHT22;37438;55.674;13.074;2023-02-26T10:22:21;13.40;99.90
20233;DHT22;37438;55.674;13.074;2023-02-26T10:25:35;13.00;99.90
20233;DHT22;37438;55.674;13.074;2023-02-26T10:35:28;14.20;99.90
20233;DHT22;37438;55.674;13.074;2023-02-26T10:38:34;14.00;99.90
20233;DHT22;37438;55.674;13.074;2023-02-26T10:41:39;13.10;99.90
20233;DHT22;37438;55.674;13.074;2023-02-26T10:48:13;13.10;99.90
20233;DHT22;37438;55.674;13.074;2023-02-26T10:51:24;13.90;99.90
20233;DHT22;37438;55.674;13.074;2023-02-26T10:54:34;14.50;99.90
20233;DHT22;37438;55.674;13.074;2023-02-26T10:57:43;14.50;99.90
20233;DHT22;37438;55.674;13.074;2023-02-26T11:00:53;14.90;99.90
20233;DHT22;37438;55.674;13.074;2023-02-26T11:04:07;15.00;99.90
20233;DHT22;37438;55.674;13.074;2023-02-26T11:07:13;15.10;99.90
20233;DHT22;37438;55.674;13.074;2023-02-26T11:10:21;14.80;99.90
20233;DHT22;37438;55.674;13.074;2023-02-26T11:13:29;15.00;99.90
20233;DHT22;37438;55.674;13.074;2023-02-26T11:16:34;15.70;99.20
20233;DHT22;37438;55.674;13.074;2023-02-26T11:19:52;15.30;91.80
20233;DHT22;37438;55.674;13.074;2023-02-26T11:23:02;15.10;83.40
20233;DHT22;37438;55.674;13.074;2023-02-26T11:26:13;14.90;91.30
20233;DHT22;37438;55.674;13.074;2023-02-26T11:29:20;15.80;80.50
20233;DHT22;37438;55.674;13.074;2023-02-26T11:32:36;15.50;73.00
20233;DHT22;37438;55.674;13.074;2023-02-26T11:35:41;15.40;68.70
20233;DHT22;37438;55.674;13.074;2023-02-26T11:38:55;15.10;65.60
20233;DHT22;37438;55.674;13.074;2023-02-26T11:42:02;15.60;74.80
20233;DHT22;37438;55.674;13.074;2023-02-26T11:45:07;15.60;56.50
20233;DHT22;37438;55.674;13.074;2023-02-26T11:48:20;14.90;73.90
20233;DHT22;37438;55.674;13.074;2023-02-26T11:51:27;15.10;85.90
20233;DHT22;37438;55.674;13.074;2023-02-26T11:54:34;16.00;79.40
20233;DHT22;37438;55.674;13.074;2023-02-26T11:57:41;15.40;50.70
20233;DHT22;37438;55.674;13.074;2023-02-26T12:00:47;16.00;74.10
20233;DHT22;37438;55.674;13.074;2023-02-26T12:03:58;16.50;54.20
20233;DHT22;37438;55.674;13.074;2023-02-26T12:07:02;16.60;44.30
20233;DHT22;37438;55.674;13.074;2023-02-26T12:10:20;16.90;41.80
20233;DHT22;37438;55.674;13.074;2023-02-26T12:13:54;16.30;36.60
20233;DHT22;37438;55.674;13.074;2023-02-26T12:27:25;16.70;41.90
20233;DHT22;37438;55.674;13.074;2023-02-26T12:30:49;16.10;41.70
20233;DHT22;37438;55.674;13.074;2023-02-26T12:41:12;16.60;43.90
20233;DHT22;37438;55.674;13.074;2023-02-26T12:44:52;15.90;54.50
20233;DHT22;37438;55.674;13.074;2023-02-26T13:22:22;18.00;22.50
20233;DHT22;37438;55.674;13.074;2023-02-26T13:32:13;18.30;3.80
20233;DHT22;37438;55.674;13.074;2023-02-26T13:35:38;18.10;1.00
20233;DHT22;37438;55.674;13.074;2023-02-26T13:39:02;18.30;2.30
20233;DHT22;37438;55.674;13.074;2023-02-26T13:52:34;16.80;13.90
20233;DHT22;37438;55.674;13.074;2023-02-26T13:55:48;17.60;16.10
20233;DHT22;37438;55.674;13.074;2023-02-26T13:59:03;16.50;21.90
20233;DHT22;37438;55.674;13.074;2023-02-26T14:09:03;15.70;37.50
20233;DHT22;37438;55.674;13.074;2023-02-26T14:15:37;15.10;72.70
20233;DHT22;37438;55.674;13.074;2023-02-26T14:21:55;14.20;99.90
20233;DHT22;37438;55.674;13.074;2023-02-26T14:25:26;15.50;96.10
20233;DHT22;37438;55.674;13.074;2023-02-26T14:28:42;13.30;99.90
20233;DHT22;37438;55.674;13.074;2023-02-26T14:31:54;13.90;99.90
20233;DHT22;37438;55.674;13.074;2023-02-26T14:35:08;13.70;99.90
20233;DHT22;37438;55.674;13.074;2023-02-26T14:38:35;13.80;99.90
20233;DHT22;37438;55.674;13.074;2023-02-26T14:41:41;13.60;99.90
20233;DHT22;37438;55.674;13.074;2023-02-26T14:44:49;13.20;99.90
20233;DHT22;37438;55.674;13.074;2023-02-26T14:47:57;13.60;99.90
20233;DHT22;37438;55.674;13.074;2023-02-26T15:01:31;14.00;99.90
20233;DHT22;37438;55.674;13.074;2023-02-26T15:08:11;14.20;99.90
20233;DHT22;37438;55.674;13.074;2023-02-26T15:21:37;14.50;87.10
20233;DHT22;37438;55.674;13.074;2023-02-26T15:24:45;13.60;99.90
20233;DHT22;37438;55.674;13.074;2023-02-26T15:27:49;13.30;99.90
20233;DHT22;37438;55.674;13.074;2023-02-26T15:30:54;13.30;99.90
20233;DHT22;37438;55.674;13.074;2023-02-26T15:34:01;14.50;97.90
20233;DHT22;37438;55.674;13.074;2023-02-26T15:37:06;14.80;88.60
20233;DHT22;37438;55.674;13.074;2023-02-26T15:40:13;15.40;75.50
20233;DHT22;37438;55.674;13.074;2023-02-26T15:43:26;15.60;67.10
20233;DHT22;37438;55.674;13.074;2023-02-26T15:46:35;15.80;64.30
20233;DHT22;37438;55.674;13.074;2023-02-26T15:49:44;15.70;64.10
20233;DHT22;37438;55.674;13.074;2023-02-26T15:52:54;14.70;79.00
20233;DHT22;37438;55.674;13.074;2023-02-26T15:56:11;14.30;97.00
20233;DHT22;37438;55.674;13.074;2023-02-26T15:59:19;14.00;99.90
20233;DHT22;37438;55.674;13.074;2023-02-26T16:02:30;13.80;99.90
20233;DHT22;37438;55.674;13.074;2023-02-26T16:05:35;14.00;99.90
20233;DHT22;37438;55.674;13.074;2023-02-26T16:08:39;13.70;99.90
20233;DHT22;37438;55.674;13.074;2023-02-26T16:11:44;11.80;99.90
20233;DHT22;37438;55.674;13.074;2023-02-26T16:14:57;9.80;99.90
20233;DHT22;37438;55.674;13.074;2023-02-26T16:18:09;8.10;99.90
20233;DHT22;37438;55.674;13.074;2023-02-26T16:21:37;7.00;3.60
20233;DHT22;37438;55.674;13.074;2023-02-26T16:24:51;6.00;99.90
20233;DHT22;37438;55.674;13.074;2023-02-26T16:28:05;5.40;99.90
20233;DHT22;37438;55.674;13.074;2023-02-26T16:31:16;5.00;99.90
20233;DHT22;37438;55.674;13.074;2023-02-26T16:34:27;4.60;99.90
20233;DHT22;37438;55.674;13.074;2023-02-26T16:37:34;4.40;99.90
20233;DHT22;37438;55.674;13.074;2023-02-26T16:40:43;4.20;99.90
20233;DHT22;37438;55.674;13.074;2023-02-26T16:43:53;4.10;99.90
20233;DHT22;37438;55.674;13.074;2023-02-26T16:47:01;3.90;99.90
20233;DHT22;37438;55.674;13.074;2023-02-26T16:50:18;3.70;99.90
20233;DHT22;37438;55.674;13.074;2023-02-26T16:53:23;3.50;99.90
20233;DHT22;37438;55.674;13.074;2023-02-26T16:56:39;3.30;1.00
20233;DHT22;37438;55.674;13.074;2023-02-26T16:59:50;3.10;1.00
20233;DHT22;37438;55.674;13.074;2023-02-26T17:03:19;3.00;1.00
20233;DHT22;37438;55.674;13.074;2023-02-26T17:06:26;2.80;1.00
20233;DHT22;37438;55.674;13.074;2023-02-26T17:09:46;2.60;1.00
20233;DHT22;37438;55.674;13.074;2023-02-26T17:12:52;2.50;1.00
20233;DHT22;37438;55.674;13.074;2023-02-26T17:16:07;2.40;1.00
20233;DHT22;37438;55.674;13.074;2023-02-26T17:19:12;2.30;5.60
20233;DHT22;37438;55.674;13.074;2023-02-26T17:22:20;2.20;22.60
20233;DHT22;37438;55.674;13.074;2023-02-26T17:25:33;2.10;38.30
20233;DHT22;37438;55.674;13.074;2023-02-26T17:28:41;2.00;62.10
20233;DHT22;37438;55.674;13.074;2023-02-26T17:31:46;1.90;85.50
20233;DHT22;37438;55.674;13.074;2023-02-26T17:34:50;1.90;97.40
20233;DHT22;37438;55.674;13.074;2023-02-26T17:37:55;1.80;99.90
20233;DHT22;37438;55.674;13.074;2023-02-26T17:41:00;1.80;99.90
20233;DHT22;37438;55.674;13.074;2023-02-26T17:44:05;1.70;99.90
20233;DHT22;37438;55.674;13.074;2023-02-26T17:47:21;1.70;99.90
20233;DHT22;37438;55.674;13.074;2023-02-26T17:50:49;1.60;99.90
20233;DHT22;37438;55.674;13.074;2023-02-26T17:53:53;1.60;99.90
20233;DHT22;37438;55.674;13.074;2023-02-26T17:56:58;1.50;99.90
20233;DHT22;37438;55.674;13.074;2023-02-26T18:00:03;1.50;99.90
20233;DHT22;37438;55.674;13.074;2023-02-26T18:03:18;1.40;99.90
20233;DHT22;37438;55.674;13.074;2023-02-26T18:06:24;1.40;99.90
20233;DHT22;37438;55.674;13.074;2023-02-26T18:09:28;1.40;99.90
20233;DHT22;37438;55.674;13.074;2023-02-26T18:12:32;1.30;99.90
20233;DHT22;37438;55.674;13.074;2023-02-26T18:15:37;1.20;99.90
20233;DHT22;37438;55.674;13.074;2023-02-26T18:18:41;1.20;99.90
20233;DHT22;37438;55.674;13.074;2023-02-26T18:21:46;1.20;99.90
20233;DHT22;37438;55.674;13.074;2023-02-26T18:24:52;1.20;99.90
20233;DHT22;37438;55.674;13.074;2023-02-26T18:27:57;1.10;99.90
20233;DHT22;37438;55.674;13.074;2023-02-26T18:31:04;1.10;99.90
20233;DHT22;37438;55.674;13.074;2023-02-26T18:34:12;1.10;99.90
20233;DHT22;37438;55.674;13.074;2023-02-26T18:37:22;1.00;99.90
20233;DHT22;37438;55.674;13.074;2023-02-26T18:40:27;1.00;99.90
20233;DHT22;37438;55.674;13.074;2023-02-26T18:43:32;1.00;99.90
20233;DHT22;37438;55.674;13.074;2023-02-26T18:46:36;1.00;99.90
20233;DHT22;37438;55.674;13.074;2023-02-26T18:49:43;0.90;99.90
20233;DHT22;37438;55.674;13.074;2023-02-26T18:52:49;0.90;99.90
20233;DHT22;37438;55.674;13.074;2023-02-26T18:55:53;0.90;99.90
20233;DHT22;37438;55.674;13.074;2023-02-26T18:58:58;0.90;99.90
20233;DHT22;37438;55.674;13.074;2023-02-26T19:02:04;0.80;99.90
20233;DHT22;37438;55.674;13.074;2023-02-26T19:05:10;0.80;99.90
20233;DHT22;37438;55.674;13.074;2023-02-26T19:08:16;0.70;99.90
20233;DHT22;37438;55.674;13.074;2023-02-26T19:11:20;0.70;99.90
20233;DHT22;37438;55.674;13.074;2023-02-26T19:14:25;0.70;99.90
20233;DHT22;37438;55.674;13.074;2023-02-26T19:17:30;0.60;99.90
20233;DHT22;37438;55.674;13.074;2023-02-26T19:20:34;0.60;99.90
20233;DHT22;37438;55.674;13.074;2023-02-26T19:23:38;0.60;99.90
20233;DHT22;37438;55.674;13.074;2023-02-26T19:26:43;0.50;99.90
20233;DHT22;37438;55.674;13.074;2023-02-26T19:29:48;0.50;99.90
20233;DHT22;37438;55.674;13.074;2023-02-26T19:32:53;0.40;99.90
20233;DHT22;37438;55.674;13.074;2023-02-26T19:35:58;0.40;99.90
20233;DHT22;37438;55.674;13.074;2023-02-26T19:39:04;0.50;99.90
20233;DHT22;37438;55.674;13.074;2023-02-26T19:42:09;0.40;99.90
20233;DHT22;37438;55.674;13.074;2023-02-26T19:45:14;0.30;99.90
20233;DHT22;37438;55.674;13.074;2023-02-26T19:48:20;0.20;99.90
20233;DHT22;37438;55.674;13.074;2023-02-26T19:51:25;0.20;99.90
20233;DHT22;37438;55.674;13.074;2023-02-26T19:54:30;0.20;99.90
20233;DHT22;37438;55.674;13.074;2023-02-26T19:57:34;0.20;99.90
20233;DHT22;37438;55.674;13.074;2023-02-26T20:00:39;0.10;99.90
20233;DHT22;37438;55.674;13.074;2023-02-26T20:03:44;0.10;99.90
20233;DHT22;37438;55.674;13.074;2023-02-26T20:06:52;0.00;99.90
20233;DHT22;37438;55.674;13.074;2023-02-26T20:09:56;0.00;99.90
20233;DHT22;37438;55.674;13.074;2023-02-26T20:13:01;0.00;99.90
20233;DHT22;37438;55.674;13.074;2023-02-26T20:16:07;0.00;99.90
20233;DHT22;37438;55.674;13.074;2023-02-26T20:19:12;0.00;99.90
20233;DHT22;37438;55.674;13.074;2023-02-26T20:22:17;-0.10;99.90
20233;DHT22;37438;55.674;13.074;2023-02-26T20:25:24;-0.20;99.90
20233;DHT22;37438;55.674;13.074;2023-02-26T20:28:28;-0.20;99.90
20233;DHT22;37438;55.674;13.074;2023-02-26T20:31:32;-0.30;99.90
20233;DHT22;37438;55.674;13.074;2023-02-26T20:34:37;-0.30;99.90
20233;DHT22;37438;55.674;13.074;2023-02-26T20:37:41;-0.40;99.90
20233;DHT22;37438;55.674;13.074;2023-02-26T20:40:47;-0.40;99.90
20233;DHT22;37438;55.674;13.074;2023-02-26T20:43:52;-0.40;99.90
20233;DHT22;37438;55.674;13.074;2023-02-26T20:46:56;-0.40;99.90
20233;DHT22;37438;55.674;13.074;2023-02-26T20:50:01;-0.50;99.90
20233;DHT22;37438;55.674;13.074;2023-02-26T20:53:06;-0.60;99.90
20233;DHT22;37438;55.674;13.074;2023-02-26T20:56:11;-0.60;99.90
20233;DHT22;37438;55.674;13.074;2023-02-26T20:59:17;-0.70;99.90
20233;DHT22;37438;55.674;13.074;2023-02-26T21:02:21;-0.80;99.90
20233;DHT22;37438;55.674;13.074;2023-02-26T21:05:26;-0.80;99.90
20233;DHT22;37438;55.674;13.074;2023-02-26T21:08:30;-0.90;99.90
20233;DHT22;37438;55.674;13.074;2023-02-26T21:11:34;-0.90;99.90
20233;DHT22;37438;55.674;13.074;2023-02-26T21:14:40;-1.00;99.90
20233;DHT22;37438;55.674;13.074;2023-02-26T21:17:44;-1.00;99.90
20233;DHT22;37438;55.674;13.074;2023-02-26T21:20:49;-0.90;99.90
20233;DHT22;37438;55.674;13.074;2023-02-26T21:23:53;-0.90;99.90
20233;DHT22;37438;55.674;13.074;2023-02-26T21:26:58;-0.90;99.90
20233;DHT22;37438;55.674;13.074;2023-02-26T21:30:04;-0.90;99.90
20233;DHT22;37438;55.674;13.074;2023-02-26T21:33:09;-1.00;99.90
20233;DHT22;37438;55.674;13.074;2023-02-26T21:36:14;-1.00;99.90
20233;DHT22;37438;55.674;13.074;2023-02-26T21:39:18;-1.10;99.90
20233;DHT22;37438;55.674;13.074;2023-02-26T21:42:23;-1.10;99.90
20233;DHT22;37438;55.674;13.074;2023-02-26T21:45:29;-1.20;99.90
20233;DHT22;37438;55.674;13.074;2023-02-26T21:48:34;-1.40;99.90
20233;DHT22;37438;55.674;13.074;2023-02-26T21:51:38;-1.40;99.90
20233;DHT22;37438;55.674;13.074;2023-02-26T21:54:42;-1.50;99.90
20233;DHT22;37438;55.674;13.074;2023-02-26T21:57:47;-1.50;99.90
20233;DHT22;37438;55.674;13.074;2023-02-26T22:00:51;-1.50;99.90
20233;DHT22;37438;55.674;13.074;2023-02-26T22:03:56;-1.40;99.90
20233;DHT22;37438;55.674;13.074;2023-02-26T22:07:00;-1.10;99.90
20233;DHT22;37438;55.674;13.074;2023-02-26T22:10:06;-1.40;99.90